Latest Weather Observations for Eildon Fire Tower

IDV60801

Issued at 10:32 pm EST Wednesday 26 September 2018 (issued every 10 minutes, with the page automatically refreshed every 10 minutes)

About weather observations | Map of weather stations | Latest weather observations for VIC | Other Formats
Station Details ID: 088164 Name: EILDON FIRE TOWER Lat: -37.21 Lon: 145.84 Height: 637.0 m
Data from the previous 72 hours. | See also: Recent months at Eildon Fire Tower
Date/Time
EST
Temp
°C
App
Temp
°C
Dew
Point
°C
Rel
Hum
%
Delta-T
°C
Wind Press
QNH
hPa
Press
MSL
hPa
Rain since
9am
mm
Dir  Spd
km/h
Gust
km/h
Spd
kts
Gust
kts
26/10:30pm 10.9 8.1 -0.2 46 4.7 NW 4 6 2 3 - - 0.0
26/10:00pm 11.9 9.4 1.3 48 4.6 NW 4 6 2 3 - - 0.0
26/09:30pm 12.0 9.0 1.1 47 4.8 NW 6 7 3 4 - - 0.0
26/09:00pm 11.8 8.7 1.4 49 4.6 W 7 7 4 4 - - 0.0
26/08:30pm 11.7 7.7 0.2 45 4.9 W 11 13 6 7 - - 0.0
26/08:00pm 11.6 6.8 -2.9 36 5.8 W 13 15 7 8 - - 0.0
26/07:30pm 11.9 7.0 -3.4 34 6.0 WSW 13 13 7 7 - - 0.0
26/07:00pm 12.1 7.4 -2.1 37 5.8 W 13 15 7 8 - - 0.0
26/06:30pm 12.2 7.7 0.0 43 5.2 W 13 15 7 8 - - 0.0
26/06:00pm 13.4 9.6 2.0 46 5.1 W 11 13 6 7 - - 0.0
26/05:30pm 14.5 10.9 3.0 46 5.3 W 11 13 6 7 - - 0.0
26/05:00pm 14.9 11.3 2.8 44 5.6 W 11 15 6 8 - - 0.0
26/04:30pm 15.2 11.6 3.0 44 5.7 W 11 15 6 8 - - 0.0
26/04:00pm 15.6 11.5 2.4 41 6.1 WSW 13 19 7 10 - - 0.0
26/03:30pm 16.7 13.8 1.2 35 7.1 SSE 6 9 3 5 - - 0.0
26/03:00pm 16.8 13.4 -1.8 28 8.0 SW 6 9 3 5 - - 0.0
26/02:30pm 15.8 13.1 2.6 41 6.2 W 6 11 3 6 - - 0.0
26/02:00pm 15.9 12.7 -0.3 33 7.1 NNW 6 11 3 6 - - 0.0
26/01:30pm 16.4 12.9 -1.7 29 7.7 NNE 7 13 4 7 - - 0.0
26/01:00pm 15.6 11.9 -2.8 28 7.6 NE 7 13 4 7 - - 0.0
26/12:30pm 14.9 11.4 -1.6 32 7.0 NE 7 15 4 8 - - 0.0
26/12:00pm 14.3 10.9 -1.7 33 6.7 NNE 6 11 3 6 - - 0.0
26/11:30am 14.7 12.3 4.4 50 4.9 NNE 6 11 3 6 - - 0.0
26/11:00am 14.5 12.0 4.8 52 4.7 ESE 7 17 4 9 - - 0.0
26/10:30am 13.0 9.8 2.8 50 4.7 E 9 13 5 7 - - 0.0
26/10:00am 11.9 8.8 1.3 48 4.6 E 7 13 4 7 - - 0.0
26/09:30am 10.7 6.6 2.0 55 3.8 E 13 20 7 11 - - 0.0
26/09:00am 10.2 6.3 3.3 62 3.1 E 13 20 7 11 - - 0.0
26/08:30am 8.8 3.7 1.0 58 3.3 E 17 20 9 11 - - 0.0
26/08:00am 8.6 4.0 1.3 60 3.1 ESE 15 20 8 11 - - 0.0
26/07:30am 7.4 2.2 0.4 61 2.9 ESE 17 24 9 13 - - 0.0
26/07:00am 6.3 -0.3 -0.2 63 2.6 ESE 24 37 13 20 - - 0.0
26/06:30am 5.6 -0.6 -0.2 66 2.3 ESE 22 32 12 17 - - 0.0
26/06:00am 4.5 -1.1 -0.3 71 1.9 ESE 19 24 10 13 - - 0.0
26/05:30am 4.9 -1.7 -0.3 69 2.0 ESE 24 37 13 20 - - 0.0
26/05:00am 4.7 -1.5 -0.1 71 1.9 ESE 22 33 12 18 - - 0.0
26/04:30am 4.8 -0.7 0.4 73 1.8 ESE 19 28 10 15 - - 0.0
26/04:00am 4.4 0.0 0.6 76 1.5 SE 13 19 7 10 - - 0.0
26/03:30am 4.8 -0.7 0.4 73 1.8 SE 19 32 10 17 - - 0.0
26/03:00am 4.8 -0.7 0.8 75 1.6 ESE 19 28 10 15 - - 0.0
26/02:30am 4.9 0.6 1.0 76 1.6 SE 13 22 7 12 - - 0.0
26/02:00am 5.4 0.8 1.3 75 1.7 SE 15 24 8 13 - - 0.0
26/01:30am 5.5 1.6 1.4 75 1.7 SSE 11 24 6 13 - - 0.0
26/01:00am 5.7 -0.2 1.6 75 1.7 SE 22 32 12 17 - - 0.0
26/12:30am 5.9 -0.7 1.8 75 1.7 ESE 26 41 14 22 - - 0.0
26/12:00am 5.9 -0.3 2.0 76 1.6 SE 24 35 13 19 - - 0.0
 
Date/Time
EST
Temp
°C
App
Temp
°C
Dew
Point
°C
Rel
Hum
%
Delta-T
°C
Wind Press
QNH
hPa
Press
MSL
hPa
Rain since
9am
mm
Dir  Spd
km/h
Gust
km/h
Spd
kts
Gust
kts
25/11:30pm 6.2 0.0 2.1 75 1.7 SE 24 35 13 19 - - 0.0
25/11:00pm 6.0 1.5 1.9 75 1.7 SSE 15 28 8 15 - - 0.0
25/10:30pm 6.3 1.4 1.8 73 1.9 SE 17 35 9 19 - - 0.0
25/10:00pm 6.5 2.0 2.4 75 1.8 SE 15 28 8 15 - - 0.0
25/09:30pm 6.0 2.7 2.6 79 1.5 S 9 11 5 6 - - 0.0
25/09:00pm 6.5 3.3 2.9 78 1.6 SE 9 19 5 10 - - 0.0
25/08:30pm 6.5 3.3 2.9 78 1.6 SSE 9 19 5 10 - - 0.0
25/08:00pm 6.9 4.1 3.3 78 1.6 SSE 7 11 4 6 - - 0.0
25/07:30pm 7.1 4.6 3.9 80 1.4 SW 6 9 3 5 - - 0.0
25/07:00pm 7.7 5.0 3.6 75 1.8 SE 7 15 4 8 - - 0.0
25/06:30pm 7.9 5.2 3.6 74 1.9 ESE 7 9 4 5 - - 0.0
25/06:00pm 8.1 5.1 4.3 77 1.7 WSW 9 11 5 6 - - 0.0
25/05:30pm 8.6 4.1 4.4 75 1.9 WSW 17 20 9 11 - - 0.0
25/05:00pm 9.2 4.4 4.4 72 2.2 WSW 19 24 10 13 - - 0.0
25/04:30pm 9.9 5.1 4.7 70 2.4 SW 19 24 10 13 - - 0.0
25/04:00pm 10.6 5.5 3.9 63 3.1 WSW 20 26 11 14 - - 0.0
25/03:30pm 11.4 6.7 5.1 65 3.0 WSW 19 28 10 15 - - 0.0
25/03:00pm 11.5 7.4 4.3 61 3.4 WSW 15 22 8 12 - - 0.0
25/02:30pm 12.0 8.1 3.3 55 4.0 W 13 20 7 11 - - 0.0
25/02:00pm 12.0 8.3 4.5 60 3.5 W 13 19 7 10 - - 0.0
25/01:30pm 11.2 7.1 4.2 62 3.3 WSW 15 20 8 11 - - 0.0
25/01:00pm 11.9 8.1 5.8 66 3.0 WSW 15 24 8 13 - - 0.0
25/12:30pm 10.4 6.8 5.0 69 2.5 WSW 13 19 7 10 - - 0.0
25/12:00pm 10.7 8.6 6.6 76 2.0 SW 7 11 4 6 - - 0.0
25/11:30am 10.5 7.9 5.9 73 2.2 WSW 9 15 5 8 - - 0.0
25/11:00am 10.0 7.5 4.6 69 2.5 W 7 11 4 6 - - 0.0
25/10:30am 9.2 7.4 5.4 77 1.8 W 4 7 2 4 - - 0.0
25/10:00am 10.9 8.7 5.4 69 2.6 E 6 11 3 6 - - 0.0
25/09:30am 9.7 7.4 4.7 71 2.3 NE 6 13 3 7 - - 0.0
25/09:00am 9.3 6.7 4.3 71 2.3 E 7 11 4 6 - - 0.0
25/08:30am 8.7 6.5 5.4 80 1.5 E 6 9 3 5 - - 0.0
25/08:00am 7.3 5.3 4.3 81 1.4 E 4 7 2 4 - - 0.0
25/07:30am 5.7 3.9 3.5 86 1.0 NNE 2 4 1 2 - - 0.0
25/07:00am 3.9 1.1 2.9 93 0.4 WSW 7 9 4 5 - - 0.0
25/06:30am 3.7 0.4 2.5 92 0.5 SW 9 11 5 6 - - 0.0
25/06:00am 4.0 0.7 2.5 90 0.6 SE 9 13 5 7 - - 0.0
25/05:30am 4.2 0.5 2.4 88 0.8 ESE 11 19 6 10 - - 0.0
25/05:00am 4.0 1.0 2.2 88 0.7 ESE 7 11 4 6 - - 0.0
25/04:30am 4.3 0.2 2.5 88 0.8 ESE 13 17 7 9 - - 0.0
25/04:00am 4.6 0.2 2.5 86 0.9 ESE 15 24 8 13 - - 0.0
25/03:30am 4.6 0.2 2.6 87 0.8 SE 15 19 8 10 - - 0.0
25/03:00am 4.8 1.2 3.0 88 0.8 ESE 11 13 6 7 - - 0.0
25/02:30am 5.2 2.5 3.7 90 0.7 SSE 7 11 4 6 - - 0.0
25/02:00am 5.5 2.8 3.5 87 0.9 SSE 7 9 4 5 - - 0.0
25/01:30am 5.5 2.9 3.0 84 1.1 SE 6 7 3 4 - - 0.0
25/01:00am 5.6 1.9 2.6 81 1.3 SE 11 19 6 10 - - 0.0
25/12:30am 6.0 2.0 2.6 79 1.5 ESE 13 20 7 11 - - 0.0
25/12:00am 6.5 1.2 2.9 78 1.6 ESE 20 32 11 17 - - 0.0
 
Date/Time
EST
Temp
°C
App
Temp
°C
Dew
Point
°C
Rel
Hum
%
Delta-T
°C
Wind Press
QNH
hPa
Press
MSL
hPa
Rain since
9am
mm
Dir  Spd
km/h
Gust
km/h
Spd
kts
Gust
kts
24/11:30pm 6.7 1.0 3.1 78 1.6 ESE 22 35 12 19 - - 0.0
24/11:00pm 6.9 1.7 3.5 79 1.5 ESE 20 32 11 17 - - 0.0
24/10:30pm 6.8 4.1 3.9 82 1.3 E 7 13 4 7 - - 0.0
24/10:00pm 6.7 3.7 4.2 84 1.1 W 9 11 5 6 - - 0.0
24/09:30pm 7.0 4.1 4.5 84 1.1 W 9 13 5 7 - - 0.0
24/09:00pm 7.1 4.5 4.2 82 1.3 WSW 7 13 4 7 - - 0.0
24/08:30pm 7.6 4.7 4.4 80 1.4 WSW 9 13 5 7 - - 0.0
24/08:00pm 7.9 3.1 4.5 79 1.5 WSW 19 20 10 11 - - 0.0
24/07:30pm 8.6 3.2 4.6 76 1.8 WSW 22 30 12 16 - - 0.0
24/07:00pm 9.3 3.1 4.5 72 2.2 WSW 26 35 14 19 - - 0.0
24/06:30pm 10.0 3.4 4.4 68 2.6 WSW 28 37 15 20 - - 0.0
24/06:00pm 11.2 6.7 4.0 61 3.3 W 17 26 9 14 - - 0.0
24/05:30pm 12.3 7.5 2.7 52 4.4 W 17 22 9 12 - - 0.0
24/05:00pm 13.4 9.7 2.3 47 5.0 W 11 17 6 9 - - 0.0
24/04:30pm 13.7 9.6 2.3 46 5.2 WSW 13 17 7 9 - - 0.0
24/04:00pm 13.5 9.3 1.5 44 5.4 W 13 20 7 11 - - 0.0
24/03:30pm 13.3 9.2 2.2 47 5.0 W 13 19 7 10 - - 0.0
24/03:00pm 13.5 9.1 2.7 48 5.0 W 15 20 8 11 - - 0.0
24/02:30pm 13.3 9.4 3.4 51 4.6 W 13 22 7 12 - - 0.0
24/02:00pm 12.9 9.7 3.0 51 4.5 W 9 17 5 9 - - 0.0
24/01:30pm 12.7 9.5 3.1 52 4.4 WSW 9 20 5 11 - - 0.0
24/01:00pm 12.6 9.6 4.3 57 3.9 WNW 9 19 5 10 - - 0.0
24/12:30pm 11.3 7.2 2.3 54 4.0 W 13 19 7 10 - - 0.0
24/12:00pm 11.7 8.4 2.5 53 4.1 WSW 9 15 5 8 - - 0.0
24/11:30am 11.4 8.6 2.9 56 3.8 WSW 7 15 4 8 - - 0.0
24/11:00am 12.2 9.6 0.9 46 4.9 S 4 6 2 3 - - 0.0
24/10:30am 11.2 7.7 1.2 50 4.3 E 9 15 5 8 - - 0.0
24/10:00am 9.9 6.3 0.8 53 3.9 E 9 17 5 9 - - 0.0
24/09:30am 8.9 4.8 0.1 54 3.6 ESE 11 20 6 11 - - 0.0
24/09:00am 9.3 5.5 1.7 59 3.3 ESE 11 20 6 11 - - 0.0
24/08:30am 7.8 3.0 0.3 59 3.1 E 15 22 8 12 - - 0.0
24/08:00am 7.5 3.0 0.0 59 3.1 ESE 13 19 7 10 - - 0.0
24/07:30am 6.3 1.0 -0.4 62 2.7 E 17 22 9 12 - - 0.0
24/07:00am 5.4 0.4 -1.3 62 2.6 ESE 15 24 8 13 - - 0.0
24/06:30am 4.3 -1.1 -1.7 65 2.3 ESE 17 24 9 13 - - 0.0
24/06:00am 3.7 -2.7 -2.0 66 2.1 ESE 22 35 12 19 - - 0.0
24/05:30am 3.3 -2.2 -2.2 67 2.0 ESE 17 28 9 15 - - 0.0
24/05:00am 3.5 -3.0 -2.2 66 2.1 ESE 22 37 12 20 - - 0.0
24/04:30am 3.3 -2.2 -2.2 67 2.0 ESE 17 28 9 15 - - 0.0
24/04:00am 3.3 -2.2 -2.2 67 2.0 SE 17 26 9 14 - - 0.0
24/03:30am 2.8 -2.3 -1.7 72 1.7 S 15 24 8 13 - - 0.0
24/03:00am 3.6 -3.2 -1.5 69 1.9 SE 24 50 13 27 - - 0.0
24/02:30am 3.6 -4.3 -1.2 71 1.8 SE 30 54 16 29 - - 0.0
24/02:00am 3.6 -3.1 -1.2 71 1.8 SE 24 43 13 23 - - 0.0
24/01:30am 3.7 -3.0 -1.1 71 1.8 SE 24 43 13 23 - - 0.0
24/01:00am 4.1 -3.7 -1.1 69 2.0 SE 30 54 16 29 - - 0.0
24/12:51am 3.8 -3.6 -0.8 72 1.8 SE 28 46 15 25 - - 0.0
24/12:43am 3.7 -2.2 -0.7 73 1.7 SE 20 37 11 20 - - 0.0
24/12:30am 3.5 -0.4 -1.3 71 1.8 SE 9 19 5 10 - - 0.0
24/12:00am 3.8 -1.6 -1.2 70 1.9 SE 17 28 9 15 - - 0.0
 
Date/Time
EST
Temp
°C
App
Temp
°C
Dew
Point
°C
Rel
Hum
%
Delta-T
°C
Wind Press
QNH
hPa
Press
MSL
hPa
Rain since
9am
mm
Dir  Spd
km/h
Gust
km/h
Spd
kts
Gust
kts
23/11:30pm 4.2 -1.5 -1.0 69 2.0 SE 19 33 10 18 - - 0.0
23/11:00pm 4.2 -1.7 -1.0 69 2.0 SE 20 35 11 19 - - 0.0

Other Formats:

Comma delimited format used in spreadsheet applications
http://www.bom.gov.au/fwo/IDV60801/IDV60801.94881.axf

JavaScript Object Notation format (JSON) in row-major order
http://www.bom.gov.au/fwo/IDV60801/IDV60801.94881.json